createdAt,value
2022-08-26T00:00:41.361Z,0
2022-08-26T00:20:41.370Z,0
2022-08-26T00:40:41.181Z,0
2022-08-26T01:00:41.141Z,0
2022-08-26T01:20:41.035Z,0
2022-08-26T01:40:41.009Z,0
2022-08-26T02:00:41.042Z,0
2022-08-26T02:20:40.962Z,0
2022-08-26T02:40:40.839Z,0
2022-08-26T03:00:52.487Z,0
2022-08-26T03:20:40.745Z,0
2022-08-26T03:40:40.706Z,3
2022-08-26T04:00:40.638Z,63
2022-08-26T04:20:40.720Z,273
2022-08-26T04:40:40.572Z,842
2022-08-26T05:00:40.601Z,1950
2022-08-26T05:20:40.465Z,3792
2022-08-26T05:40:40.488Z,8015
2022-08-26T06:00:40.370Z,17534
2022-08-26T06:20:40.326Z,7210
2022-08-26T06:40:40.277Z,18892
2022-08-26T07:00:40.244Z,20626
2022-08-26T07:20:40.188Z,13934
2022-08-26T07:40:40.216Z,15955
2022-08-26T08:00:40.062Z,17735
2022-08-26T08:20:42.271Z,10050
2022-08-26T08:40:39.972Z,9173
2022-08-26T09:00:40.058Z,4081
2022-08-26T09:20:39.870Z,5490
2022-08-26T09:40:39.810Z,7612
2022-08-26T10:00:39.770Z,7441
2022-08-26T10:20:39.703Z,3068
2022-08-26T10:40:39.774Z,3694
2022-08-26T11:00:39.804Z,2740
2022-08-26T11:20:41.689Z,1552
2022-08-26T11:40:39.575Z,2568
2022-08-26T12:00:39.440Z,7423
2022-08-26T12:20:39.402Z,5232
2022-08-26T12:40:39.352Z,1013
2022-08-26T13:00:39.487Z,1115
2022-08-26T13:20:39.284Z,820
2022-08-26T13:40:39.257Z,424
2022-08-26T14:00:39.185Z,520
2022-08-26T14:20:39.119Z,701
2022-08-26T14:40:39.139Z,295
2022-08-26T15:00:39.048Z,265
2022-08-26T15:20:38.995Z,382
2022-08-26T15:40:39.093Z,410
2022-08-26T16:00:38.957Z,365
2022-08-26T16:20:38.833Z,327
2022-08-26T16:40:38.847Z,352
2022-08-26T17:00:38.698Z,336
2022-08-26T17:20:38.700Z,243
2022-08-26T17:40:38.605Z,131
2022-08-26T18:00:38.579Z,30
2022-08-26T18:20:38.530Z,5
2022-08-26T18:40:38.501Z,0
2022-08-26T19:00:38.392Z,0
2022-08-26T19:20:38.376Z,0
2022-08-26T19:40:38.354Z,0
2022-08-26T20:00:38.259Z,0
2022-08-26T20:20:38.330Z,0
2022-08-26T20:40:38.193Z,0
2022-08-26T21:00:38.161Z,0
2022-08-26T21:20:38.105Z,0
2022-08-26T21:40:38.047Z,0
2022-08-26T22:00:38.080Z,0
2022-08-26T22:20:37.928Z,0
2022-08-26T22:40:37.882Z,0
2022-08-26T23:00:37.853Z,0
2022-08-26T23:20:37.780Z,0
2022-08-26T23:40:37.778Z,0
